sensor_id;sensor_type;location;lat;lon;timestamp;pressure;altitude;pressure_sealevel;temperature;humidity
80837;BME280;70251;60.008;30.404;2023-09-12T00:01:22;100965.00;;;20.16;62.08
80837;BME280;70251;60.008;30.404;2023-09-12T00:03:48;100971.06;;;20.18;61.98
80837;BME280;70251;60.008;30.404;2023-09-12T00:06:13;100980.72;;;20.21;61.90
80837;BME280;70251;60.008;30.404;2023-09-12T00:08:39;100980.03;;;20.19;61.74
80837;BME280;70251;60.008;30.404;2023-09-12T00:11:08;100973.41;;;20.21;61.97
80837;BME280;70251;60.008;30.404;2023-09-12T00:13:41;100972.41;;;20.22;62.15
80837;BME280;70251;60.008;30.404;2023-09-12T00:16:07;100974.78;;;20.17;62.01
80837;BME280;70251;60.008;30.404;2023-09-12T00:18:35;100972.47;;;20.14;61.82
80837;BME280;70251;60.008;30.404;2023-09-12T00:21:00;100967.44;;;20.11;62.07
80837;BME280;70251;60.008;30.404;2023-09-12T00:23:27;100971.63;;;20.13;61.94
80837;BME280;70251;60.008;30.404;2023-09-12T00:25:52;100972.47;;;20.14;62.10
80837;BME280;70251;60.008;30.404;2023-09-12T00:28:19;100967.63;;;20.09;61.90
80837;BME280;70251;60.008;30.404;2023-09-12T00:30:45;100971.84;;;20.12;62.25
80837;BME280;70251;60.008;30.404;2023-09-12T00:33:10;100974.53;;;20.12;61.95
80837;BME280;70251;60.008;30.404;2023-09-12T00:35:39;100976.59;;;20.10;62.22
80837;BME280;70251;60.008;30.404;2023-09-12T00:38:04;100968.41;;;20.03;62.42
80837;BME280;70251;60.008;30.404;2023-09-12T00:40:31;100982.09;;;20.02;62.43
80837;BME280;70251;60.008;30.404;2023-09-12T00:42:58;100974.38;;;19.99;62.29
80837;BME280;70251;60.008;30.404;2023-09-12T00:45:24;100979.78;;;19.99;62.19
80837;BME280;70251;60.008;30.404;2023-09-12T00:47:50;100973.91;;;19.95;62.55
80837;BME280;70251;60.008;30.404;2023-09-12T00:50:17;100984.06;;;19.93;62.49
80837;BME280;70251;60.008;30.404;2023-09-12T00:52:46;100974.50;;;19.91;62.51
80837;BME280;70251;60.008;30.404;2023-09-12T00:55:12;100984.47;;;19.90;62.49
80837;BME280;70251;60.008;30.404;2023-09-12T00:57:39;100975.31;;;19.91;62.63
80837;BME280;70251;60.008;30.404;2023-09-12T01:00:05;100978.84;;;19.92;62.39
80837;BME280;70251;60.008;30.404;2023-09-12T01:02:42;100985.41;;;19.97;62.73
80837;BME280;70251;60.008;30.404;2023-09-12T01:05:09;100976.59;;;19.95;62.53
80837;BME280;70251;60.008;30.404;2023-09-12T01:07:38;100987.28;;;19.97;62.45
80837;BME280;70251;60.008;30.404;2023-09-12T01:10:05;100980.16;;;19.96;62.44
80837;BME280;70251;60.008;30.404;2023-09-12T01:12:31;100985.13;;;19.92;62.28
80837;BME280;70251;60.008;30.404;2023-09-12T01:14:56;100979.91;;;19.91;62.56
80837;BME280;70251;60.008;30.404;2023-09-12T01:17:23;100981.28;;;19.87;62.74
80837;BME280;70251;60.008;30.404;2023-09-12T01:19:49;100982.53;;;19.84;62.63
80837;BME280;70251;60.008;30.404;2023-09-12T01:27:51;100979.31;;;19.81;62.94
80837;BME280;70251;60.008;30.404;2023-09-12T01:30:21;100982.03;;;19.81;62.70
80837;BME280;70251;60.008;30.404;2023-09-12T01:32:48;100980.38;;;19.80;62.68
80837;BME280;70251;60.008;30.404;2023-09-12T01:35:14;100986.16;;;19.77;62.72
80837;BME280;70251;60.008;30.404;2023-09-12T01:37:39;100988.84;;;19.77;62.92
80837;BME280;70251;60.008;30.404;2023-09-12T01:40:06;100978.59;;;19.72;62.80
80837;BME280;70251;60.008;30.404;2023-09-12T01:42:45;100988.00;;;19.76;63.34
80837;BME280;70251;60.008;30.404;2023-09-12T01:45:16;100976.94;;;19.71;62.90
80837;BME280;70251;60.008;30.404;2023-09-12T01:47:42;100973.06;;;19.66;62.77
80837;BME280;70251;60.008;30.404;2023-09-12T01:50:12;100979.91;;;19.62;62.78
80837;BME280;70251;60.008;30.404;2023-09-12T01:52:39;100982.34;;;19.57;62.98
80837;BME280;70251;60.008;30.404;2023-09-12T01:55:05;100980.34;;;19.51;63.03
80837;BME280;70251;60.008;30.404;2023-09-12T01:57:32;100977.00;;;19.49;63.22
80837;BME280;70251;60.008;30.404;2023-09-12T01:59:58;100981.09;;;19.45;62.99
80837;BME280;70251;60.008;30.404;2023-09-12T02:02:23;100981.28;;;19.43;63.20
80837;BME280;70251;60.008;30.404;2023-09-12T02:05:11;100979.44;;;19.44;63.47
80837;BME280;70251;60.008;30.404;2023-09-12T02:07:41;100978.94;;;19.40;63.45
80837;BME280;70251;60.008;30.404;2023-09-12T02:10:07;100977.47;;;19.38;63.09
80837;BME280;70251;60.008;30.404;2023-09-12T02:12:33;100977.47;;;19.38;63.07
80837;BME280;70251;60.008;30.404;2023-09-12T02:14:59;100980.19;;;19.38;63.19
80837;BME280;70251;60.008;30.404;2023-09-12T02:17:25;100979.13;;;19.39;63.20
80837;BME280;70251;60.008;30.404;2023-09-12T02:19:51;100969.16;;;19.39;63.14
80837;BME280;70251;60.008;30.404;2023-09-12T02:22:16;100956.69;;;19.30;63.08
80837;BME280;70251;60.008;30.404;2023-09-12T02:24:42;100967.06;;;19.26;63.11
80837;BME280;70251;60.008;30.404;2023-09-12T02:27:07;100959.03;;;19.18;63.29
80837;BME280;70251;60.008;30.404;2023-09-12T02:29:34;100964.44;;;19.18;63.38
80837;BME280;70251;60.008;30.404;2023-09-12T02:32:00;100968.53;;;19.14;63.08
80837;BME280;70251;60.008;30.404;2023-09-12T02:34:25;100967.41;;;19.09;63.49
80837;BME280;70251;60.008;30.404;2023-09-12T02:36:51;100971.31;;;19.06;63.93
80837;BME280;70251;60.008;30.404;2023-09-12T02:39:16;100964.59;;;19.02;63.65
80837;BME280;70251;60.008;30.404;2023-09-12T02:41:42;100970.84;;;19.03;63.99
80837;BME280;70251;60.008;30.404;2023-09-12T02:44:08;100960.38;;;19.00;63.54
80837;BME280;70251;60.008;30.404;2023-09-12T02:46:34;100969.72;;;18.97;63.54
80837;BME280;70251;60.008;30.404;2023-09-12T02:49:00;100966.72;;;18.92;63.79
80837;BME280;70251;60.008;30.404;2023-09-12T02:51:26;100956.78;;;18.85;63.52
80837;BME280;70251;60.008;30.404;2023-09-12T02:53:51;100974.94;;;18.76;63.79
80837;BME280;70251;60.008;30.404;2023-09-12T02:56:17;100967.28;;;18.65;63.71
80837;BME280;70251;60.008;30.404;2023-09-12T02:58:46;100964.63;;;18.57;64.07
80837;BME280;70251;60.008;30.404;2023-09-12T03:01:19;100973.28;;;18.52;64.55
80837;BME280;70251;60.008;30.404;2023-09-12T03:03:50;100954.38;;;18.52;64.61
80837;BME280;70251;60.008;30.404;2023-09-12T03:06:16;100959.94;;;18.51;64.51
80837;BME280;70251;60.008;30.404;2023-09-12T03:08:43;100964.63;;;18.57;64.44
80837;BME280;70251;60.008;30.404;2023-09-12T03:11:09;100959.91;;;18.59;64.51
80837;BME280;70251;60.008;30.404;2023-09-12T03:13:36;100962.41;;;18.61;64.10
80837;BME280;70251;60.008;30.404;2023-09-12T03:16:02;100953.47;;;18.60;64.46
80837;BME280;70251;60.008;30.404;2023-09-12T03:18:28;100955.97;;;18.62;64.33
80837;BME280;70251;60.008;30.404;2023-09-12T03:20:54;100952.44;;;18.61;64.45
80837;BME280;70251;60.008;30.404;2023-09-12T03:23:20;100961.03;;;18.65;64.40
80837;BME280;70251;60.008;30.404;2023-09-12T03:25:46;100961.38;;;18.62;64.17
80837;BME280;70251;60.008;30.404;2023-09-12T03:28:12;100962.88;;;18.64;64.38
80837;BME280;70251;60.008;30.404;2023-09-12T03:30:38;100960.91;;;18.58;64.23
80837;BME280;70251;60.008;30.404;2023-09-12T03:33:05;100962.22;;;18.62;64.22
80837;BME280;70251;60.008;30.404;2023-09-12T03:35:34;100954.13;;;18.62;64.44
80837;BME280;70251;60.008;30.404;2023-09-12T03:38:00;100962.22;;;18.62;64.11
80837;BME280;70251;60.008;30.404;2023-09-12T03:40:29;100958.56;;;18.55;63.91
80837;BME280;70251;60.008;30.404;2023-09-12T03:42:57;100959.00;;;18.44;64.05
80837;BME280;70251;60.008;30.404;2023-09-12T03:45:24;100962.06;;;18.33;64.14
80837;BME280;70251;60.008;30.404;2023-09-12T03:47:50;100963.97;;;18.24;64.52
80837;BME280;70251;60.008;30.404;2023-09-12T03:50:18;100958.91;;;18.21;64.62
80837;BME280;70251;60.008;30.404;2023-09-12T03:52:44;100965.47;;;18.27;64.87
80837;BME280;70251;60.008;30.404;2023-09-12T03:55:09;100956.16;;;18.29;64.95
80837;BME280;70251;60.008;30.404;2023-09-12T03:57:35;100970.34;;;18.31;64.87
80837;BME280;70251;60.008;30.404;2023-09-12T04:00:01;100954.97;;;18.32;64.66
80837;BME280;70251;60.008;30.404;2023-09-12T04:02:30;100952.56;;;18.37;64.43
80837;BME280;70251;60.008;30.404;2023-09-12T04:04:56;100954.44;;;18.36;64.58
80837;BME280;70251;60.008;30.404;2023-09-12T04:07:24;100956.94;;;18.38;64.69
80837;BME280;70251;60.008;30.404;2023-09-12T04:09:50;100964.72;;;18.41;64.90
80837;BME280;70251;60.008;30.404;2023-09-12T04:12:15;100951.38;;;18.39;64.17
80837;BME280;70251;60.008;30.404;2023-09-12T04:14:41;100965.56;;;18.41;64.74
80837;BME280;70251;60.008;30.404;2023-09-12T04:17:06;100959.19;;;18.34;64.50
80837;BME280;70251;60.008;30.404;2023-09-12T04:19:33;100954.84;;;18.25;64.56
80837;BME280;70251;60.008;30.404;2023-09-12T04:21:59;100963.47;;;18.21;64.33
80837;BME280;70251;60.008;30.404;2023-09-12T04:24:26;100958.31;;;18.11;64.50
80837;BME280;70251;60.008;30.404;2023-09-12T04:26:53;100963.56;;;18.05;64.89
80837;BME280;70251;60.008;30.404;2023-09-12T04:29:19;100957.84;;;18.00;64.88
80837;BME280;70251;60.008;30.404;2023-09-12T04:31:45;100961.78;;;17.97;64.86
80837;BME280;70251;60.008;30.404;2023-09-12T04:34:10;100959.22;;;17.96;65.02
80837;BME280;70251;60.008;30.404;2023-09-12T04:36:36;100954.94;;;18.09;66.28
80837;BME280;70251;60.008;30.404;2023-09-12T04:39:01;100947.09;;;18.76;67.51
80837;BME280;70251;60.008;30.404;2023-09-12T04:41:27;100949.13;;;19.48;66.05
80837;BME280;70251;60.008;30.404;2023-09-12T04:43:53;100944.38;;;20.00;65.54
80837;BME280;70251;60.008;30.404;2023-09-12T04:46:18;100944.41;;;20.36;64.46
80837;BME280;70251;60.008;30.404;2023-09-12T04:48:44;100936.81;;;20.67;64.24
80837;BME280;70251;60.008;30.404;2023-09-12T04:51:09;100936.97;;;21.08;64.12
80837;BME280;70251;60.008;30.404;2023-09-12T04:53:35;100938.09;;;21.48;63.25
80837;BME280;70251;60.008;30.404;2023-09-12T04:56:01;100936.56;;;21.80;62.23
80837;BME280;70251;60.008;30.404;2023-09-12T04:58:28;100938.84;;;21.70;60.79
80837;BME280;70251;60.008;30.404;2023-09-12T05:00:56;100942.94;;;21.25;60.81
80837;BME280;70251;60.008;30.404;2023-09-12T05:03:22;100935.25;;;20.79;61.51
80837;BME280;70251;60.008;30.404;2023-09-12T05:05:49;100932.78;;;20.42;61.75
80837;BME280;70251;60.008;30.404;2023-09-12T05:08:16;100946.88;;;20.17;62.23
80837;BME280;70251;60.008;30.404;2023-09-12T05:10:46;100939.94;;;19.93;62.79
80837;BME280;70251;60.008;30.404;2023-09-12T05:13:11;100940.22;;;19.69;62.98
80837;BME280;70251;60.008;30.404;2023-09-12T05:15:41;100944.69;;;19.62;63.24
80837;BME280;70251;60.008;30.404;2023-09-12T05:18:07;100942.56;;;19.57;63.32
80837;BME280;70251;60.008;30.404;2023-09-12T05:20:33;100941.44;;;19.52;63.49
80837;BME280;70251;60.008;30.404;2023-09-12T05:22:59;100936.13;;;19.44;63.64
80837;BME280;70251;60.008;30.404;2023-09-12T05:25:24;100941.06;;;19.40;63.82
80837;BME280;70251;60.008;30.404;2023-09-12T05:27:52;100943.13;;;19.38;64.07
80837;BME280;70251;60.008;30.404;2023-09-12T05:30:18;100943.13;;;19.38;64.04
80837;BME280;70251;60.008;30.404;2023-09-12T05:32:46;100944.81;;;19.39;64.10
80837;BME280;70251;60.008;30.404;2023-09-12T05:35:12;100939.41;;;19.39;64.09
80837;BME280;70251;60.008;30.404;2023-09-12T05:37:38;100942.41;;;19.44;64.28
80837;BME280;70251;60.008;30.404;2023-09-12T05:40:04;100944.06;;;19.45;64.56
80837;BME280;70251;60.008;30.404;2023-09-12T05:42:30;100945.91;;;19.45;64.41
80837;BME280;70251;60.008;30.404;2023-09-12T05:44:56;100945.75;;;19.46;64.10
80837;BME280;70251;60.008;30.404;2023-09-12T05:47:22;100950.03;;;19.41;64.44
80837;BME280;70251;60.008;30.404;2023-09-12T05:49:48;100953.13;;;19.38;64.70
80837;BME280;70251;60.008;30.404;2023-09-12T05:52:14;100947.22;;;19.34;64.78
80837;BME280;70251;60.008;30.404;2023-09-12T05:54:39;100939.63;;;19.29;64.97
80837;BME280;70251;60.008;30.404;2023-09-12T05:57:09;100953.47;;;19.34;64.69
80837;BME280;70251;60.008;30.404;2023-09-12T05:59:38;100946.06;;;19.28;64.98
80837;BME280;70251;60.008;30.404;2023-09-12T06:02:07;100944.34;;;19.36;65.11
80837;BME280;70251;60.008;30.404;2023-09-12T06:04:35;100945.75;;;19.46;64.55
80837;BME280;70251;60.008;30.404;2023-09-12T06:07:04;100945.00;;;19.52;64.69
80837;BME280;70251;60.008;30.404;2023-09-12T06:09:30;100936.88;;;19.52;64.80
80837;BME280;70251;60.008;30.404;2023-09-12T06:11:55;100935.38;;;19.50;64.65
80837;BME280;70251;60.008;30.404;2023-09-12T06:14:21;100944.16;;;19.52;64.69
80837;BME280;70251;60.008;30.404;2023-09-12T06:16:46;100945.16;;;19.51;64.95
80837;BME280;70251;60.008;30.404;2023-09-12T06:19:12;100943.22;;;19.59;64.81
80837;BME280;70251;60.008;30.404;2023-09-12T06:21:40;100943.13;;;19.67;64.85
80837;BME280;70251;60.008;30.404;2023-09-12T06:26:35;100927.97;;;19.87;64.39
80837;BME280;70251;60.008;30.404;2023-09-12T06:29:00;100936.81;;;19.96;64.29
80837;BME280;70251;60.008;30.404;2023-09-12T06:31:26;100925.69;;;20.05;64.19
80837;BME280;70251;60.008;30.404;2023-09-12T06:33:51;100932.66;;;20.14;64.09
80837;BME280;70251;60.008;30.404;2023-09-12T06:36:17;100928.00;;;20.23;63.78
80837;BME280;70251;60.008;30.404;2023-09-12T06:38:43;100932.47;;;20.31;63.41
80837;BME280;70251;60.008;30.404;2023-09-12T06:41:09;100936.53;;;20.41;63.61
80837;BME280;70251;60.008;30.404;2023-09-12T06:43:34;100935.78;;;20.47;63.67
80837;BME280;70251;60.008;30.404;2023-09-12T06:46:00;100921.19;;;20.48;63.43
80837;BME280;70251;60.008;30.404;2023-09-12T06:48:25;100925.84;;;20.54;63.41
80837;BME280;70251;60.008;30.404;2023-09-12T06:50:53;100921.69;;;20.58;63.36
80837;BME280;70251;60.008;30.404;2023-09-12T06:53:19;100927.38;;;20.63;63.20
80837;BME280;70251;60.008;30.404;2023-09-12T06:55:44;100918.84;;;20.66;63.18
80837;BME280;70251;60.008;30.404;2023-09-12T06:58:10;100926.41;;;20.71;63.20
80837;BME280;70251;60.008;30.404;2023-09-12T07:00:36;100926.72;;;20.82;63.32
80837;BME280;70251;60.008;30.404;2023-09-12T07:03:02;100931.81;;;20.92;63.15
80837;BME280;70251;60.008;30.404;2023-09-12T07:05:27;100930.84;;;21.00;62.95
80837;BME280;70251;60.008;30.404;2023-09-12T07:07:53;100929.28;;;21.12;63.02
80837;BME280;70251;60.008;30.404;2023-09-12T07:10:19;100925.19;;;21.22;62.69
80837;BME280;70251;60.008;30.404;2023-09-12T07:12:44;100923.56;;;21.34;62.49
80837;BME280;70251;60.008;30.404;2023-09-12T07:15:10;100920.25;;;21.39;62.43
80837;BME280;70251;60.008;30.404;2023-09-12T07:17:36;100931.13;;;21.39;62.26
80837;BME280;70251;60.008;30.404;2023-09-12T07:20:01;100930.16;;;21.46;62.13
80837;BME280;70251;60.008;30.404;2023-09-12T07:22:30;100931.25;;;21.58;62.13
80837;BME280;70251;60.008;30.404;2023-09-12T07:24:59;100922.09;;;21.66;61.77
80837;BME280;70251;60.008;30.404;2023-09-12T07:27:25;100919.00;;;21.76;61.73
80837;BME280;70251;60.008;30.404;2023-09-12T07:29:50;100925.34;;;21.83;61.55
80837;BME280;70251;60.008;30.404;2023-09-12T07:32:16;100923.00;;;21.80;60.78
80837;BME280;70251;60.008;30.404;2023-09-12T07:34:41;100924.22;;;21.77;60.61
80837;BME280;70251;60.008;30.404;2023-09-12T07:37:10;100922.44;;;21.84;61.13
80837;BME280;70251;60.008;30.404;2023-09-12T07:39:39;100928.72;;;21.98;61.57
80837;BME280;70251;60.008;30.404;2023-09-12T07:42:04;100927.31;;;22.15;60.86
80837;BME280;70251;60.008;30.404;2023-09-12T07:44:30;100926.56;;;22.27;60.42
80837;BME280;70251;60.008;30.404;2023-09-12T07:46:56;100918.59;;;22.32;60.08
80837;BME280;70251;60.008;30.404;2023-09-12T07:49:21;100928.25;;;22.42;60.07
80837;BME280;70251;60.008;30.404;2023-09-12T07:51:47;100925.78;;;22.60;59.91
80837;BME280;70251;60.008;30.404;2023-09-12T07:54:12;100934.59;;;22.81;59.72
80837;BME280;70251;60.008;30.404;2023-09-12T07:56:38;100937.31;;;23.01;59.20
80837;BME280;70251;60.008;30.404;2023-09-12T07:59:04;100921.63;;;23.09;58.85
80837;BME280;70251;60.008;30.404;2023-09-12T08:01:29;100931.03;;;23.33;58.83
80837;BME280;70251;60.008;30.404;2023-09-12T08:03:55;100930.19;;;23.39;57.76
80837;BME280;70251;60.008;30.404;2023-09-12T08:06:22;100929.56;;;23.44;57.02
80837;BME280;70251;60.008;30.404;2023-09-12T08:08:49;100929.53;;;23.50;57.02
80837;BME280;70251;60.008;30.404;2023-09-12T08:11:15;100929.50;;;23.70;57.00
80837;BME280;70251;60.008;30.404;2023-09-12T08:13:40;100926.91;;;23.81;56.69
80837;BME280;70251;60.008;30.404;2023-09-12T08:16:06;100925.00;;;23.88;56.38
80837;BME280;70251;60.008;30.404;2023-09-12T08:18:31;100923.28;;;24.01;55.98
80837;BME280;70251;60.008;30.404;2023-09-12T08:20:57;100920.47;;;24.20;56.29
80837;BME280;70251;60.008;30.404;2023-09-12T08:23:23;100925.31;;;24.49;55.62
80837;BME280;70251;60.008;30.404;2023-09-12T08:25:49;100921.06;;;24.60;55.09
80837;BME280;70251;60.008;30.404;2023-09-12T08:28:14;100919.66;;;24.82;55.17
80837;BME280;70251;60.008;30.404;2023-09-12T08:30:40;100915.50;;;25.04;54.27
80837;BME280;70251;60.008;30.404;2023-09-12T08:33:05;100907.94;;;25.24;54.08
80837;BME280;70251;60.008;30.404;2023-09-12T08:35:32;100907.22;;;25.54;54.00
80837;BME280;70251;60.008;30.404;2023-09-12T08:37:58;100913.69;;;25.77;53.23
80837;BME280;70251;60.008;30.404;2023-09-12T08:40:23;100907.97;;;25.97;53.16
80837;BME280;70251;60.008;30.404;2023-09-12T08:42:52;100893.06;;;26.11;52.43
80837;BME280;70251;60.008;30.404;2023-09-12T08:45:19;100906.25;;;26.32;51.67
80837;BME280;70251;60.008;30.404;2023-09-12T08:47:53;100900.84;;;26.55;51.41
80837;BME280;70251;60.008;30.404;2023-09-12T08:50:20;100896.81;;;26.69;50.89
80837;BME280;70251;60.008;30.404;2023-09-12T08:52:47;100892.22;;;26.81;50.25
80837;BME280;70251;60.008;30.404;2023-09-12T08:55:13;100896.41;;;26.96;49.87
80837;BME280;70251;60.008;30.404;2023-09-12T08:57:41;100890.81;;;27.02;49.85
80837;BME280;70251;60.008;30.404;2023-09-12T09:00:07;100891.66;;;27.26;49.42
80837;BME280;70251;60.008;30.404;2023-09-12T09:02:40;100893.56;;;27.48;48.75
80837;BME280;70251;60.008;30.404;2023-09-12T09:05:08;100888.03;;;27.72;48.38
80837;BME280;70251;60.008;30.404;2023-09-12T09:07:37;100884.66;;;27.81;47.52
80837;BME280;70251;60.008;30.404;2023-09-12T09:10:05;100887.69;;;27.96;47.11
80837;BME280;70251;60.008;30.404;2023-09-12T09:12:31;100879.56;;;28.13;46.95
80837;BME280;70251;60.008;30.404;2023-09-12T09:14:58;100885.06;;;28.13;46.61
80837;BME280;70251;60.008;30.404;2023-09-12T09:17:25;100883.50;;;28.17;45.88
80837;BME280;70251;60.008;30.404;2023-09-12T09:19:51;100877.78;;;28.35;45.96
80837;BME280;70251;60.008;30.404;2023-09-12T09:22:17;100880.66;;;28.57;45.43
80837;BME280;70251;60.008;30.404;2023-09-12T09:24:42;100881.03;;;28.77;45.43
80837;BME280;70251;60.008;30.404;2023-09-12T09:27:08;100874.00;;;28.86;44.79
80837;BME280;70251;60.008;30.404;2023-09-12T09:29:46;100883.94;;;28.70;44.69
80837;BME280;70251;60.008;30.404;2023-09-12T09:32:22;100885.50;;;28.21;44.90
80837;BME280;70251;60.008;30.404;2023-09-12T09:34:48;100888.47;;;27.80;45.57
80837;BME280;70251;60.008;30.404;2023-09-12T09:37:13;100885.28;;;27.72;46.15
80837;BME280;70251;60.008;30.404;2023-09-12T09:39:40;100880.19;;;28.03;46.05
80837;BME280;70251;60.008;30.404;2023-09-12T09:42:10;100882.09;;;28.59;45.38
80837;BME280;70251;60.008;30.404;2023-09-12T09:44:37;100880.41;;;29.08;44.78
80837;BME280;70251;60.008;30.404;2023-09-12T09:47:03;100863.06;;;29.41;44.48
80837;BME280;70251;60.008;30.404;2023-09-12T09:49:32;100873.88;;;29.47;43.71
80837;BME280;70251;60.008;30.404;2023-09-12T09:52:03;100869.00;;;29.16;44.04
80837;BME280;70251;60.008;30.404;2023-09-12T09:54:29;100895.56;;;29.10;44.32
80837;BME280;70251;60.008;30.404;2023-09-12T09:56:57;100875.34;;;29.00;44.24
80837;BME280;70251;60.008;30.404;2023-09-12T09:59:25;100866.97;;;29.11;43.88
80837;BME280;70251;60.008;30.404;2023-09-12T10:01:55;100878.72;;;29.40;43.13
80837;BME280;70251;60.008;30.404;2023-09-12T10:04:22;100871.09;;;29.69;43.31
80837;BME280;70251;60.008;30.404;2023-09-12T10:06:49;100870.91;;;29.97;43.09
80837;BME280;70251;60.008;30.404;2023-09-12T10:09:16;100864.88;;;30.22;42.56
80837;BME280;70251;60.008;30.404;2023-09-12T10:11:43;100866.78;;;30.48;41.88
80837;BME280;70251;60.008;30.404;2023-09-12T10:14:12;100862.25;;;30.63;41.82
80837;BME280;70251;60.008;30.404;2023-09-12T10:16:46;100874.84;;;30.28;41.70
80837;BME280;70251;60.008;30.404;2023-09-12T10:21:50;100875.78;;;29.68;41.84
80837;BME280;70251;60.008;30.404;2023-09-12T10:24:19;100870.53;;;29.45;42.74
80837;BME280;70251;60.008;30.404;2023-09-12T10:26:49;100876.47;;;29.59;42.77
80837;BME280;70251;60.008;30.404;2023-09-12T10:29:15;100867.28;;;29.70;42.54
80837;BME280;70251;60.008;30.404;2023-09-12T10:31:41;100870.44;;;29.78;42.60
80837;BME280;70251;60.008;30.404;2023-09-12T10:34:08;100875.91;;;30.27;42.17
80837;BME280;70251;60.008;30.404;2023-09-12T10:36:39;100880.34;;;30.28;41.33
80837;BME280;70251;60.008;30.404;2023-09-12T10:39:06;100870.38;;;30.22;41.80
80837;BME280;70251;60.008;30.404;2023-09-12T10:41:33;100878.38;;;30.23;41.85
80837;BME280;70251;60.008;30.404;2023-09-12T10:44:04;100872.84;;;29.97;42.02
80837;BME280;70251;60.008;30.404;2023-09-12T10:46:39;100874.38;;;29.66;42.20
80837;BME280;70251;60.008;30.404;2023-09-12T10:49:14;100878.84;;;29.50;42.02
80837;BME280;70251;60.008;30.404;2023-09-12T10:51:44;100879.25;;;29.04;42.54
80837;BME280;70251;60.008;30.404;2023-09-12T10:54:14;100880.50;;;28.96;42.70
80837;BME280;70251;60.008;30.404;2023-09-12T10:56:40;100884.06;;;29.30;42.72
80837;BME280;70251;60.008;30.404;2023-09-12T11:01:36;100885.44;;;30.14;41.38
80837;BME280;70251;60.008;30.404;2023-09-12T11:04:30;100868.81;;;30.57;40.83
80837;BME280;70251;60.008;30.404;2023-09-12T11:06:58;100863.88;;;30.91;40.59
80837;BME280;70251;60.008;30.404;2023-09-12T11:09:24;100867.03;;;31.10;40.05
80837;BME280;70251;60.008;30.404;2023-09-12T11:14:16;100875.06;;;31.53;39.51
80837;BME280;70251;60.008;30.404;2023-09-12T11:16:42;100880.72;;;31.36;39.29
80837;BME280;70251;60.008;30.404;2023-09-12T11:19:18;100871.81;;;31.19;39.10
80837;BME280;70251;60.008;30.404;2023-09-12T11:21:50;100873.81;;;30.92;38.75
80837;BME280;70251;60.008;30.404;2023-09-12T11:24:16;100877.50;;;30.44;39.66
80837;BME280;70251;60.008;30.404;2023-09-12T11:27:02;100876.78;;;30.06;39.72
80837;BME280;70251;60.008;30.404;2023-09-12T11:29:38;100861.69;;;29.65;40.57
80837;BME280;70251;60.008;30.404;2023-09-12T11:32:05;100885.25;;;29.77;40.97
80837;BME280;70251;60.008;30.404;2023-09-12T11:34:41;100884.69;;;29.75;40.78
80837;BME280;70251;60.008;30.404;2023-09-12T11:37:07;100877.09;;;29.82;40.82
80837;BME280;70251;60.008;30.404;2023-09-12T11:39:35;100856.78;;;29.88;40.63
80837;BME280;70251;60.008;30.404;2023-09-12T11:42:02;100856.53;;;29.90;40.13
80837;BME280;70251;60.008;30.404;2023-09-12T11:44:28;100855.25;;;29.76;40.77
80837;BME280;70251;60.008;30.404;2023-09-12T11:46:59;100855.38;;;29.64;40.88
80837;BME280;70251;60.008;30.404;2023-09-12T11:49:37;100848.28;;;29.68;40.85
80837;BME280;70251;60.008;30.404;2023-09-12T11:52:14;100860.28;;;29.62;40.94
80837;BME280;70251;60.008;30.404;2023-09-12T11:54:42;100841.94;;;29.46;41.06
80837;BME280;70251;60.008;30.404;2023-09-12T11:57:09;100850.25;;;29.51;41.57
80837;BME280;70251;60.008;30.404;2023-09-12T11:59:40;100838.88;;;29.43;40.85
80837;BME280;70251;60.008;30.404;2023-09-12T12:02:07;100846.19;;;29.15;41.55
80837;BME280;70251;60.008;30.404;2023-09-12T12:04:33;100834.28;;;28.93;41.91
80837;BME280;70251;60.008;30.404;2023-09-12T12:07:00;100848.63;;;28.79;42.38
80837;BME280;70251;60.008;30.404;2023-09-12T12:09:27;100842.03;;;28.47;42.25
80837;BME280;70251;60.008;30.404;2023-09-12T12:11:52;100844.81;;;28.35;43.05
80837;BME280;70251;60.008;30.404;2023-09-12T12:14:18;100841.00;;;28.19;43.19
80837;BME280;70251;60.008;30.404;2023-09-12T12:16:46;100835.22;;;28.04;43.55
80837;BME280;70251;60.008;30.404;2023-09-12T12:19:15;100835.66;;;28.13;43.31
80837;BME280;70251;60.008;30.404;2023-09-12T12:21:41;100850.28;;;28.18;43.36
80837;BME280;70251;60.008;30.404;2023-09-12T12:24:11;100842.53;;;28.15;43.39
80837;BME280;70251;60.008;30.404;2023-09-12T12:26:43;100822.56;;;28.03;43.49
80837;BME280;70251;60.008;30.404;2023-09-12T12:29:10;100843.06;;;28.12;43.24
80837;BME280;70251;60.008;30.404;2023-09-12T12:31:37;100864.13;;;28.23;43.23
80837;BME280;70251;60.008;30.404;2023-09-12T12:34:05;100838.69;;;28.28;43.29
80837;BME280;70251;60.008;30.404;2023-09-12T12:36:31;100836.53;;;28.47;43.13
80837;BME280;70251;60.008;30.404;2023-09-12T12:38:57;100831.16;;;28.68;43.03
80837;BME280;70251;60.008;30.404;2023-09-12T12:41:30;100828.19;;;29.08;42.18
80837;BME280;70251;60.008;30.404;2023-09-12T12:44:01;100834.34;;;29.53;41.66
80837;BME280;70251;60.008;30.404;2023-09-12T12:46:29;100836.00;;;29.76;41.38
80837;BME280;70251;60.008;30.404;2023-09-12T12:48:54;100819.25;;;30.04;41.02
80837;BME280;70251;60.008;30.404;2023-09-12T12:51:23;100825.41;;;30.38;40.51
80837;BME280;70251;60.008;30.404;2023-09-12T12:53:53;100828.34;;;30.58;40.13
80837;BME280;70251;60.008;30.404;2023-09-12T12:56:26;100820.47;;;30.77;39.62